FDSK

Sikhuphe International Airport

Swaziland
METAR FDSK 100600Z 22010KT 9999 -DZ SCT020 BKN035 19/16 Q1018 NOSIG
Observed Flight Rules
Dec-10 @ 06:00 UTC (20 hours ago) Visual Flight Rules
Wind Visibility Clouds Conditions
220° at 10 knots 10,000+ meters
  • Scattered at 2,000' AGL
  • Broken at 3,500' AGL
  • Light Drizzle
Temperatures Readings
Current 19°C / 66°F
Dewpoint 16°C / 61°F
Humidity 83%
Altimeter 30.06" Hg
Pressure 1018 hPa
Elevation 324
METAR FDSK 100600Z 22010KT 9999 -DZ SCT020 BKN035 19/16 Q1018 NOSIG
Observed Flight Rules
Dec-10 @ 06:00 UTC
(20 hours ago)
VFR
Wind Visibility
220° at 10 knots 10,000+ meters
Clouds
  • Scattered at 2,000' AGL
  • Broken at 3,500' AGL
Conditions
  • Light Drizzle
Temperature Dewpoint
19°C / 66°F 16°C / 61°F
Humidity Altimeter Pressure
83% 30.06" Hg 1018 hPa